Dylan Rock

Dylan Rock

Lexington Legends • OF
2022 8th Rd Pick (TOR)Texas A&M 3x All-American
8-Game Home Run Record Holder 2025 ALPB 20/20 Club
.278
AVG
.381
OBP
.490
SLG
.871
OPS 67th %
.377
wOBA 66th %
Featured Scout Reel

The Driveline Comeback Process

Following back-to-back hand surgeries that halted his affiliated trajectory, Dylan spent four months in strict physical shutdown before self-funding a total mechanical re-architecture at Driveline Baseball in Scottsdale, Arizona.

  • Verified Max Exit Velocity: 111.0 MPH
  • Documented Elite Swing Path & Front-Side Optimization
  • 100% Structural Recovery and Biomechanical Health
Grand Slam vs TU
March 29, 2022 • Texas A&M
SEC Tournament vs Alabama
May 27, 2022 • Texas A&M
HR vs LSU (Back-to-Back)
March 20, 2022 • Texas A&M
8-Game HR Streak Record
Professional Baseball Milestone
HR vs Ole Miss
May 19, 2022 • Texas A&M
College World Series (MCWS)
June 22, 2022 • Texas A&M
Last Game (08/21)
0-4, 0 HR
vs Staten Island Ferry Hawks
Active Hitting Streak
0 Games
20/20 Watch
17/20 HR
16/20 SB
Needs 3 HR & 4 SB
Baseball Reference 126-Game Pace Matrix
Aggregating live performance windows across 91 games played.
Tag Translation: 95th% = outperforming 95% of league hitters.
Timeline Track Hits (H) Home Runs (HR) Stolen Bases (SB) Runs (R) Runs Batted In (RBI)
Season to Date (Now)
96 82nd%
17 87th%
16 88th%
77 89th%
63 87th%
126-Game Projected Pace 133 24 22 107 87
Last 7 Games
.211 / .911 OPS / .382 wOBA
Last 14 Games
.186 / .777 OPS / .324 wOBA
Last 30 Games
.209 / .769 OPS / .329 wOBA
Season Trajectory (Season Bound)

Cumulative performance timeline

Micro Form Tracker (Season Bound)

10-Game moving window averages

Advanced Game Logs
DateOpponentH/APAABRH2B3BHRSBRBIBBSO
TOTALSCumulative Summary-41034577961441716635464
08/21/26 Staten Island Ferry Hawks HOME 4 4 0 0 0 0 0 0 0 0 2
08/20/26 Staten Island Ferry Hawks HOME 5 3 3 1 1 0 0 2 0 2 0
08/19/26 Staten Island Ferry Hawks HOME 5 3 2 2 0 1 1 0 5 2 0
08/15/26 Southern Maryland Blue Crabs AWAY 5 3 2 1 0 0 0 0 1 1 0
08/15/26 Southern Maryland Blue Crabs AWAY 3 3 0 0 0 0 0 0 0 0 1
08/14/26 Southern Maryland Blue Crabs AWAY 4 3 0 0 0 0 0 0 0 1 1
08/13/26 Southern Maryland Blue Crabs AWAY 4 4 1 1 0 0 1 0 1 0 1
08/12/26 Southern Maryland Blue Crabs AWAY 5 4 0 0 0 0 0 0 0 0 1
08/11/26 Southern Maryland Blue Crabs AWAY 4 4 0 0 0 0 0 0 0 0 1
08/09/26 Gastonia Ghost Peppers HOME 4 3 0 0 0 0 0 0 1 0 0
08/08/26 Gastonia Ghost Peppers HOME 5 5 3 2 1 0 1 0 2 0 0
08/07/26 Gastonia Ghost Peppers HOME 4 4 0 1 0 0 0 0 0 0 1
08/06/26 Charleston Dirty Birds HOME 4 3 1 0 0 0 0 0 0 0 1
08/05/26 Charleston Dirty Birds HOME 4 4 0 1 1 0 0 0 0 0 1
08/04/26 Charleston Dirty Birds HOME 4 4 0 0 0 0 0 0 0 0 2
08/03/26 York Revolution AWAY 6 5 1 2 0 1 0 0 2 1 1
08/01/26 York Revolution AWAY 4 4 0 0 0 0 0 0 0 0 1
07/31/26 York Revolution AWAY 6 5 3 3 0 0 1 0 2 1 0
07/29/26 York Revolution AWAY 4 4 0 0 0 0 0 0 0 0 2
07/28/26 York Revolution AWAY 7 3 4 1 0 0 0 0 1 3 1
07/26/26 High Point Rockers HOME 5 4 3 2 0 0 1 1 3 1 0
07/25/26 High Point Rockers HOME 4 4 0 0 0 0 0 0 0 0 2
07/23/26 High Point Rockers HOME 5 4 1 0 0 0 0 0 0 1 0
07/22/26 High Point Rockers HOME 5 4 3 2 0 0 0 2 0 1 1
07/21/26 High Point Rockers HOME 5 5 0 0 0 0 0 0 0 0 0
07/19/26 Gastonia Ghost Peppers AWAY 4 4 1 3 0 0 0 0 0 0 0
07/18/26 Gastonia Ghost Peppers AWAY 4 4 1 1 1 0 0 0 2 0 2
07/16/26 Gastonia Ghost Peppers AWAY 6 6 0 0 0 0 0 0 0 0 1
07/15/26 Gastonia Ghost Peppers AWAY 4 3 0 1 0 0 0 0 0 1 1
07/14/26 Gastonia Ghost Peppers AWAY 5 5 2 2 0 0 1 0 4 0 0
07/12/26 York Revolution HOME 5 3 1 2 0 0 1 0 1 1 0
07/11/26 York Revolution HOME 4 3 1 0 0 0 0 0 0 1 1
07/10/26 York Revolution HOME 4 3 0 0 0 0 0 0 0 1 0
07/09/26 York Revolution HOME 4 4 0 1 0 0 0 0 0 0 1
07/08/26 York Revolution HOME 4 4 0 1 0 0 0 0 1 0 0
07/07/26 York Revolution HOME 4 4 0 1 0 0 0 0 0 0 0
07/05/26 High Point Rockers AWAY 5 5 1 1 0 0 0 0 1 0 0
07/04/26 High Point Rockers AWAY 5 4 3 2 0 0 2 0 4 0 0
07/03/26 High Point Rockers AWAY 5 4 2 2 0 0 0 0 1 1 0
07/02/26 Gastonia Ghost Peppers AWAY 5 3 1 0 0 0 0 0 0 2 1
06/30/26 Gastonia Ghost Peppers AWAY 6 6 1 1 0 0 0 0 0 0 2
06/28/26 Hagerstown Flying Boxcars HOME 4 3 0 1 0 0 0 0 0 1 0
06/27/26 Hagerstown Flying Boxcars HOME 5 4 2 3 2 0 1 0 3 1 1
06/26/26 Hagerstown Flying Boxcars HOME 4 1 1 0 0 0 0 0 0 3 1
06/25/26 Hagerstown Flying Boxcars HOME 5 4 3 2 0 1 0 0 1 1 0
06/23/26 Hagerstown Flying Boxcars HOME 4 4 0 0 0 0 0 0 0 0 2
06/21/26 High Point Rockers AWAY 5 5 0 2 1 0 0 0 1 0 1
06/20/26 High Point Rockers AWAY 5 4 2 3 0 0 0 0 1 1 0
06/19/26 High Point Rockers AWAY 5 5 1 1 0 0 0 0 0 0 0
06/18/26 High Point Rockers AWAY 5 5 1 3 1 1 1 0 2 0 1
06/17/26 High Point Rockers AWAY 4 4 0 1 0 0 0 0 0 0 0
06/16/26 High Point Rockers AWAY 4 4 2 2 0 0 1 0 2 0 0
06/13/26 Gastonia Ghost Peppers HOME 4 4 0 0 0 0 0 0 0 0 0
06/12/26 Gastonia Ghost Peppers HOME 5 2 1 0 0 0 0 0 0 3 0
06/11/26 Gastonia Ghost Peppers HOME 5 4 0 2 0 0 0 1 2 1 0
06/10/26 Gastonia Ghost Peppers HOME 4 3 2 1 0 0 0 0 0 1 0
06/09/26 Gastonia Ghost Peppers HOME 5 5 2 3 1 0 1 0 4 0 0
06/07/26 Hagerstown Flying Boxcars AWAY 5 5 1 2 0 0 0 0 0 0 0
06/06/26 Hagerstown Flying Boxcars AWAY 4 3 0 1 0 0 0 1 2 0 0
06/05/26 Hagerstown Flying Boxcars AWAY 3 3 1 1 0 0 1 0 1 0 2
06/04/26 Hagerstown Flying Boxcars AWAY 4 4 1 2 0 0 0 1 0 0 1
06/03/26 Hagerstown Flying Boxcars AWAY 5 5 0 1 0 0 0 0 0 0 2
06/02/26 Hagerstown Flying Boxcars AWAY 5 5 1 2 0 0 0 1 0 0 1
05/31/26 High Point Rockers HOME 4 4 0 0 0 0 0 0 0 0 1
05/30/26 High Point Rockers HOME 4 4 0 1 0 0 0 0 0 0 3
05/29/26 High Point Rockers HOME 4 4 2 3 0 0 2 1 3 0 0
05/28/26 Gastonia Ghost Peppers HOME 3 3 0 2 0 0 0 0 0 0 0
05/27/26 Gastonia Ghost Peppers HOME 4 2 0 0 0 0 0 0 0 2 0
05/26/26 Gastonia Ghost Peppers HOME 4 3 0 0 0 0 0 0 0 0 0
05/24/26 Southern Maryland Blue Crabs HOME 4 3 1 1 0 0 0 1 0 1 1
05/23/26 Southern Maryland Blue Crabs HOME 3 3 0 0 0 0 0 0 0 0 1
05/21/26 Southern Maryland Blue Crabs HOME 5 5 0 1 0 0 0 0 0 0 3
05/13/26 Charleston Dirty Birds AWAY 6 5 1 1 0 0 1 0 2 1 0
05/12/26 Charleston Dirty Birds AWAY 4 3 1 0 0 0 0 0 0 1 0
05/10/26 Lancaster Stormers HOME 4 3 0 1 1 0 0 0 1 1 1
05/09/26 Lancaster Stormers HOME 5 5 1 2 1 0 0 1 2 0 1
05/08/26 Lancaster Stormers HOME 4 4 0 1 0 0 0 0 0 0 0
05/07/26 Lancaster Stormers HOME 4 2 0 1 0 0 0 1 0 2 1
05/05/26 Lancaster Stormers HOME 4 2 1 1 0 0 0 1 0 2 0
05/03/26 Long Island Ducks AWAY 5 2 1 1 1 0 0 0 1 2 0
05/02/26 Long Island Ducks AWAY 4 4 1 2 1 0 0 0 0 0 0
05/01/26 Long Island Ducks AWAY 5 4 1 1 1 0 0 0 0 1 0
04/30/26 Long Island Ducks AWAY 5 5 0 1 0 0 0 0 0 0 0
04/29/26 Long Island Ducks AWAY 4 4 1 1 0 0 0 0 0 0 0
04/28/26 Long Island Ducks AWAY 4 3 0 1 0 0 0 0 0 1 2
04/26/26 Charleston Dirty Birds HOME 4 4 1 1 0 0 0 0 0 0 2
04/25/26 Charleston Dirty Birds HOME 4 2 0 0 0 0 0 1 0 2 1
04/24/26 Charleston Dirty Birds HOME 6 4 2 2 0 0 0 0 1 2 0
04/23/26 Charleston Dirty Birds AWAY 5 3 0 0 0 0 0 0 1 1 3
04/22/26 Charleston Dirty Birds AWAY 4 4 0 0 0 0 0 0 0 0 1
04/21/26 Charleston Dirty Birds AWAY 6 4 1 1 0 0 0 1 1 2 2
Baseball Savant Statcast Percentile Profile

Visualizing core discipline, power, and offensive efficiency standing across the player universe

Overall Production (OPS)67th %
Weighted Run Value (wOBA)66th %
Total Power Volume (HR)87th %
Patient Walk Drawing (BB%)71st %
Strikeout Prevention (K%)81st %
Zone Dominance (BB% - K%)84th %
Statcast Advanced Barrel & Approach Profile

Granular timeline trajectory mapping and swinging-strike execution summaries extracted from raw tracking streams

Line Drive Rate 18.2%
Ground Ball Rate 32.8%
Fly Ball Rate 39.9%
Pop Up Rate 9.1%
True Whiff Percentage 17.7% Swinging strikes over total swings taken
Pitches Per Plate Appearance 4.00 Measures deep zone stability and stamina cost
Strategic Approach & Directional Power Matrix

Count-based execution splits and directional contact mapping

Contact Quality Pull % Center % Oppo %
All Batted Balls 39.8% 28.2% 32.0%
Base Hits 36.5% 30.2% 33.3%
Extra-Base Hits 37.1% 28.6% 34.3%
Home Runs 52.9% 23.5% 23.5%
First Pitch Swing (FPS%)23.2%
2-Strike Whiff %15.0%
Quality At-Bat (QAB%)52.4%
Plate Discipline
Walk Rate (BB%)
13.2%71st %
Strikeout Rate (K%)
15.6%81st %
Zone Mastery (BB% - K%)
-2.4%84th %
Weighted wOBA
.377
BABIP Contact.295
Speed & Hustle
Stolen Bases16
Caught Stealing4
SB Success %80.0%
Basestealing Value (wSB)
+0.3978th %
Extra Bases Taken (XBT%)36.8% (14/38)
Reached on Error (ROE)8
Hitting & Power Profile
Total Hits (H)96
Total Bases (TB)169
Extra-Base Hits (XBH)35 / 96 (36.5%)
Total Home Runs (HR)
1787th %
Isolated Power (ISO).212
Run Creation Engine
wRC+ (Weighted RC+)
104Average
OPS+ (Adjusted OPS)
109Above Average
Runs Created (RC)63.5
Runs Created per PA.155
Total Average (TA).935
PA Efficiency %
XBH Rate (XBH%)8.5%
Home Run Rate (HR%)4.1%
Balls In Play (BIP%)65.4%
Contact Rate (Ct%)81.4%
Run Scoring (RSP)18.8%
Run Impact Rate (R+RBI-HR)/PA30.0%
Situational Execution
Grounded Into DP (GIDP)9 / 345 (2.6%)
Left On Base (LOB)62
Sacrifice Bunts (SH)1
Sacrifice Flies (SF)4
Savant 5-Tool Diamond

Tool mastery relative to benchmark parameters

Defensive Performance Profile

Relational tracking data log

Fielding Percentage (F%)98.8%
Total Putouts (PO)156
Outfield Assists (OFA) 8
Home: 4 3B: 0 2B: 1
Fielding Errors2
Range Factor (RF/G)1.8
Total Defensive Chances166
Team Impact Share

Dylan's volume share of total team hitting production

Run Production (R+RBI-HR)123 / 939 (13.1%)
Total Base Hits (H)96 / 819 (11.7%)
Extra-Base Power (HR)17 / 127 (13.4%)
Runs Batting In (RBI)63 / 517 (12.2%)
Plate Appearance Footprint

Discipline breakdown per appearance

Footprint Verification Ledger

Quantifying discrete appearance component counts and share distributions

Walks (BB) 54 (13.2%)
Strikeouts (SO) 64 (15.6%)
Singles (1B) 61 (14.9%)
Extra-Base Hits (XBH) 35 (8.5%)
In-Play Outs 196 (47.8%)
Total Evaluated Appearances 410
Park Advantage
SplitABHRAVGOBPSLGOPS
Home 166 8 .271 .396 .488 .884
Away 174 9 .282 .366 .494 .861
The Platoon Advantage
SplitABHRAVGOBPSLGOPS
vs LHP 86 5 .314 .427 .523 .950
vs RHP 254 12 .264 .365 .480 .846
The Clutch Factor
SituationABHRRBIAVGOPS
RISP 82 5 42 .366 1.075
Late & Close 25 0 1 .240 .625
Bases Loaded 9 1 12 .444 1.253
Runners On 150 12 58 .313 1.039
2 Outs 120 3 29 .308 .932
Count Discipline & Starts
StatePABBSOAVGOBPOPS
Leadoff (Inning) 83 7 18 .176 .265 .562
Ahead in Count 145 54 11 .333 .586 1.220
Even Count 127 0 23 .275 .294 .744
Behind in Count 133 0 30 .238 .241 .671
Bases Empty 190 34 39 .247 .373 .741
Monthly Performance Splits Ledger

Chronological verification of standard and advanced metric stability across the championship calendar

Month PA AB AVG OBP SLG OPS wOBA wRC+ ISO BB % K % Run Impact %
April 42 33 .212 .357 .212 .569 .280 77 .000 19.0% 26.2% 19.0%
May 80 65 .292 .418 .508 .925 .403 111 .215 16.3% 15.0% 20.0%
June 105 92 .370 .448 .630 1.078 .458 126 .261 11.4% 13.3% 34.3%
July 109 92 .272 .376 .478 .854 .372 102 .207 12.8% 11.9% 37.6%
August 74 63 .175 .270 .429 .699 .297 82 .254 9.5% 18.9% 29.7%
Advanced Game-by-Game Tracking Ledger

Micro-level, descending chronological log of advanced execution and power analytics per appearance

Date Opponent PA AB AVG OBP SLG OPS wOBA wRC+ ISO BB % K % Run Impact %
08/21/26 Staten Island Ferry Hawks 4 4 .000 .000 .000 .000 .000 0 .000 0.0% 50.0% 0.0%
08/20/26 Staten Island Ferry Hawks 5 3 .333 .600 .667 1.267 .530 146 .333 40.0% 0.0% 60.0%
08/19/26 Staten Island Ferry Hawks 5 3 .667 .800 2.333 3.133 1.002 276 1.667 40.0% 0.0% 120.0%
08/15/26 Southern Maryland Blue Crabs 5 3 .333 .400 .333 .733 .316 87 .000 20.0% 0.0% 60.0%
08/15/26 Southern Maryland Blue Crabs 3 3 .000 .000 .000 .000 .000 0 .000 0.0% 33.3% 0.0%
08/14/26 Southern Maryland Blue Crabs 4 3 .000 .250 .000 .250 .175 48 .000 25.0% 25.0% 0.0%
08/13/26 Southern Maryland Blue Crabs 4 4 .250 .250 1.000 1.250 .508 140 .750 0.0% 25.0% 25.0%
08/12/26 Southern Maryland Blue Crabs 5 4 .000 .200 .000 .200 .146 40 .000 0.0% 20.0% 0.0%
08/11/26 Southern Maryland Blue Crabs 4 4 .000 .000 .000 .000 .000 0 .000 0.0% 25.0% 0.0%
08/09/26 Gastonia Ghost Peppers 4 3 .000 .000 .000 .000 .000 0 .000 0.0% 0.0% 25.0%
08/08/26 Gastonia Ghost Peppers 5 5 .400 .400 1.200 1.600 .656 181 .800 0.0% 0.0% 80.0%
08/07/26 Gastonia Ghost Peppers 4 4 .250 .250 .250 .500 .220 61 .000 0.0% 25.0% 0.0%
08/06/26 Charleston Dirty Birds 4 3 .000 .250 .000 .250 .183 50 .000 0.0% 25.0% 25.0%
08/05/26 Charleston Dirty Birds 4 4 .250 .250 .500 .750 .313 86 .250 0.0% 25.0% 0.0%
08/04/26 Charleston Dirty Birds 4 4 .000 .000 .000 .000 .000 0 .000 0.0% 50.0% 0.0%
08/03/26 York Revolution 6 5 .400 .500 .800 1.300 .527 145 .400 16.7% 16.7% 50.0%
08/01/26 York Revolution 4 4 .000 .000 .000 .000 .000 0 .000 0.0% 25.0% 0.0%
07/31/26 York Revolution 6 5 .600 .667 1.200 1.867 .748 206 .600 16.7% 0.0% 66.7%
07/29/26 York Revolution 4 4 .000 .000 .000 .000 .000 0 .000 0.0% 50.0% 0.0%
07/28/26 York Revolution 7 3 .333 .571 .333 .905 .426 117 .000 42.9% 14.3% 71.4%
07/26/26 High Point Rockers 5 4 .500 .600 1.250 1.850 .722 199 .750 20.0% 0.0% 100.0%
07/25/26 High Point Rockers 4 4 .000 .000 .000 .000 .000 0 .000 0.0% 50.0% 0.0%
07/23/26 High Point Rockers 5 4 .000 .200 .000 .200 .140 39 .000 20.0% 0.0% 20.0%
07/22/26 High Point Rockers 5 4 .500 .600 .500 1.100 .492 136 .000 20.0% 20.0% 60.0%
07/21/26 High Point Rockers 5 5 .000 .000 .000 .000 .000 0 .000 0.0% 0.0% 0.0%
07/19/26 Gastonia Ghost Peppers 4 4 .750 .750 .750 1.500 .660 182 .000 0.0% 0.0% 25.0%
07/18/26 Gastonia Ghost Peppers 4 4 .250 .250 .500 .750 .313 86 .250 0.0% 50.0% 75.0%
07/16/26 Gastonia Ghost Peppers 6 6 .000 .000 .000 .000 .000 0 .000 0.0% 16.7% 0.0%
07/15/26 Gastonia Ghost Peppers 4 3 .333 .500 .333 .833 .395 109 .000 25.0% 25.0% 0.0%
07/14/26 Gastonia Ghost Peppers 5 5 .400 .400 1.000 1.400 .582 160 .600 0.0% 0.0% 100.0%
07/12/26 York Revolution 5 3 .667 .800 1.667 2.467 .868 239 1.000 20.0% 0.0% 20.0%
07/11/26 York Revolution 4 3 .000 .250 .000 .250 .175 48 .000 25.0% 25.0% 25.0%
07/10/26 York Revolution 4 3 .000 .250 .000 .250 .175 48 .000 25.0% 0.0% 0.0%
07/09/26 York Revolution 4 4 .250 .250 .250 .500 .220 61 .000 0.0% 25.0% 0.0%
07/08/26 York Revolution 4 4 .250 .250 .250 .500 .220 61 .000 0.0% 0.0% 25.0%
07/07/26 York Revolution 4 4 .250 .250 .250 .500 .220 61 .000 0.0% 0.0% 0.0%
07/05/26 High Point Rockers 5 5 .200 .200 .200 .400 .176 48 .000 0.0% 0.0% 40.0%
07/04/26 High Point Rockers 5 4 .500 .600 2.000 2.600 .958 264 1.500 0.0% 0.0% 100.0%
07/03/26 High Point Rockers 5 4 .500 .600 .500 1.100 .492 136 .000 20.0% 0.0% 60.0%
07/02/26 Gastonia Ghost Peppers 5 3 .000 .400 .000 .400 .280 77 .000 40.0% 20.0% 20.0%
06/30/26 Gastonia Ghost Peppers 6 6 .167 .167 .167 .333 .147 40 .000 0.0% 33.3% 16.7%
06/28/26 Hagerstown Flying Boxcars 4 3 .333 .500 .333 .833 .395 109 .000 25.0% 0.0% 0.0%
06/27/26 Hagerstown Flying Boxcars 5 4 .750 .800 2.000 2.800 1.046 288 1.250 20.0% 20.0% 80.0%
06/26/26 Hagerstown Flying Boxcars 4 1 .000 .750 .000 .750 .525 145 .000 75.0% 25.0% 25.0%
06/25/26 Hagerstown Flying Boxcars 5 4 .500 .600 1.000 1.600 .632 174 .500 20.0% 0.0% 80.0%
06/23/26 Hagerstown Flying Boxcars 4 4 .000 .000 .000 .000 .000 0 .000 0.0% 50.0% 0.0%
06/21/26 High Point Rockers 5 5 .400 .400 .600 1.000 .426 117 .200 0.0% 20.0% 20.0%
06/20/26 High Point Rockers 5 4 .750 .800 .750 1.550 .668 184 .000 20.0% 0.0% 60.0%
06/19/26 High Point Rockers 5 5 .200 .200 .200 .400 .176 48 .000 0.0% 0.0% 20.0%
06/18/26 High Point Rockers 5 5 .600 .600 1.800 2.400 .972 268 1.200 0.0% 20.0% 40.0%
06/17/26 High Point Rockers 4 4 .250 .250 .250 .500 .220 61 .000 0.0% 0.0% 0.0%
06/16/26 High Point Rockers 4 4 .500 .500 1.250 1.750 .728 200 .750 0.0% 0.0% 75.0%
06/13/26 Gastonia Ghost Peppers 4 4 .000 .000 .000 .000 .000 0 .000 0.0% 0.0% 0.0%
06/12/26 Gastonia Ghost Peppers 5 2 .000 .600 .000 .600 .420 116 .000 60.0% 0.0% 20.0%
06/11/26 Gastonia Ghost Peppers 5 4 .500 .600 .500 1.100 .492 136 .000 20.0% 0.0% 40.0%
06/10/26 Gastonia Ghost Peppers 4 3 .333 .500 .333 .833 .395 109 .000 25.0% 0.0% 50.0%
06/09/26 Gastonia Ghost Peppers 5 5 .600 .600 1.400 2.000 .832 229 .800 0.0% 0.0% 100.0%
06/07/26 Hagerstown Flying Boxcars 5 5 .400 .400 .400 .800 .352 97 .000 0.0% 0.0% 20.0%
06/06/26 Hagerstown Flying Boxcars 4 3 .333 .500 .333 .833 .403 111 .000 0.0% 0.0% 50.0%
06/05/26 Hagerstown Flying Boxcars 3 3 .333 .333 1.333 1.667 .677 186 1.000 0.0% 66.7% 33.3%
06/04/26 Hagerstown Flying Boxcars 4 4 .500 .500 .500 1.000 .440 121 .000 0.0% 25.0% 25.0%
06/03/26 Hagerstown Flying Boxcars 5 5 .200 .200 .200 .400 .176 48 .000 0.0% 40.0% 0.0%
06/02/26 Hagerstown Flying Boxcars 5 5 .400 .400 .400 .800 .352 97 .000 0.0% 20.0% 20.0%
05/31/26 High Point Rockers 4 4 .000 .000 .000 .000 .000 0 .000 0.0% 25.0% 0.0%
05/30/26 High Point Rockers 4 4 .250 .250 .250 .500 .220 61 .000 0.0% 75.0% 0.0%
05/29/26 High Point Rockers 4 4 .750 .750 2.250 3.000 1.235 340 1.500 0.0% 0.0% 75.0%
05/28/26 Gastonia Ghost Peppers 3 3 .667 .667 .667 1.333 .587 162 .000 0.0% 0.0% 0.0%
05/27/26 Gastonia Ghost Peppers 4 2 .000 .500 .000 .500 .350 96 .000 50.0% 0.0% 0.0%
05/26/26 Gastonia Ghost Peppers 4 3 .000 .000 .000 .000 .000 0 .000 0.0% 0.0% 0.0%
05/24/26 Southern Maryland Blue Crabs 4 3 .333 .500 .333 .833 .395 109 .000 25.0% 25.0% 25.0%
05/23/26 Southern Maryland Blue Crabs 3 3 .000 .000 .000 .000 .000 0 .000 0.0% 33.3% 0.0%
05/21/26 Southern Maryland Blue Crabs 5 5 .200 .200 .200 .400 .176 48 .000 0.0% 60.0% 0.0%
05/13/26 Charleston Dirty Birds 6 5 .200 .333 .800 1.133 .455 125 .600 16.7% 0.0% 33.3%
05/12/26 Charleston Dirty Birds 4 3 .000 .250 .000 .250 .175 48 .000 25.0% 0.0% 25.0%
05/10/26 Lancaster Stormers 4 3 .333 .500 .667 1.167 .488 134 .333 25.0% 25.0% 25.0%
05/09/26 Lancaster Stormers 5 5 .400 .400 .600 1.000 .426 117 .200 0.0% 20.0% 60.0%
05/08/26 Lancaster Stormers 4 4 .250 .250 .250 .500 .220 61 .000 0.0% 0.0% 0.0%
05/07/26 Lancaster Stormers 4 2 .500 .750 .500 1.250 .570 157 .000 50.0% 25.0% 0.0%
05/05/26 Lancaster Stormers 4 2 .500 .750 .500 1.250 .570 157 .000 50.0% 0.0% 25.0%
05/03/26 Long Island Ducks 5 2 .500 .800 1.000 1.800 .676 186 .500 40.0% 0.0% 40.0%
05/02/26 Long Island Ducks 4 4 .500 .500 .750 1.250 .533 147 .250 0.0% 0.0% 25.0%
05/01/26 Long Island Ducks 5 4 .250 .400 .500 .900 .390 107 .250 20.0% 0.0% 20.0%
04/30/26 Long Island Ducks 5 5 .200 .200 .200 .400 .176 48 .000 0.0% 0.0% 0.0%
04/29/26 Long Island Ducks 4 4 .250 .250 .250 .500 .220 61 .000 0.0% 0.0% 25.0%
04/28/26 Long Island Ducks 4 3 .333 .500 .333 .833 .395 109 .000 25.0% 50.0% 0.0%
04/26/26 Charleston Dirty Birds 4 4 .250 .250 .250 .500 .220 61 .000 0.0% 50.0% 25.0%
04/25/26 Charleston Dirty Birds 4 2 .000 .500 .000 .500 .350 96 .000 50.0% 25.0% 0.0%
04/24/26 Charleston Dirty Birds 6 4 .500 .667 .500 1.167 .527 145 .000 33.3% 0.0% 50.0%
04/23/26 Charleston Dirty Birds 5 3 .000 .200 .000 .200 .140 39 .000 20.0% 60.0% 20.0%
04/22/26 Charleston Dirty Birds 4 4 .000 .000 .000 .000 .000 0 .000 0.0% 25.0% 0.0%
04/21/26 Charleston Dirty Birds 6 4 .250 .500 .250 .750 .380 105 .000 33.3% 33.3% 33.3%